Nickel, Texas
Current Conditions -  °F | °C
As of 6:48 AM on Monday 22 Dec 2014 (Local Time) from KHYI Reporting Station
Overcast Overcast  
Wind Chill: 57°   Ceiling: 1700
Heat Index: 57°   Visibility: 10mi
Dew Point: 54°   Wind: 14mph
Humidity: 88%   Direction: 210°SSW
Pressure: 29.75"   Gusts: NA
Location:  29.481°N, 97.4305°W
Report Text: KHYI 221248Z 21012KT 10SM OVC017 14/12 A2975 RMK FIRST
Loading
Personal Weather Stations






























Interactive Weather Map New forecast layout! Learn more

10-Day Weather Forecast

Advertisements
Track Severe Weather on mobile